sensor_id;sensor_type;location;lat;lon;timestamp;temperature;humidity
19732;DHT22;10017;54.350;18.532;2022-09-20T00:02:02;9.50;99.90
19732;DHT22;10017;54.350;18.532;2022-09-20T00:04:33;9.50;99.90
19732;DHT22;10017;54.350;18.532;2022-09-20T00:07:05;9.50;99.90
19732;DHT22;10017;54.350;18.532;2022-09-20T00:09:37;9.50;99.90
19732;DHT22;10017;54.350;18.532;2022-09-20T00:12:11;9.40;99.90
19732;DHT22;10017;54.350;18.532;2022-09-20T00:14:43;9.40;99.90
19732;DHT22;10017;54.350;18.532;2022-09-20T00:17:14;9.40;99.90
19732;DHT22;10017;54.350;18.532;2022-09-20T00:19:46;9.30;99.90
19732;DHT22;10017;54.350;18.532;2022-09-20T00:22:18;9.30;99.90
19732;DHT22;10017;54.350;18.532;2022-09-20T00:24:50;9.30;99.90
19732;DHT22;10017;54.350;18.532;2022-09-20T00:27:24;9.30;99.90
19732;DHT22;10017;54.350;18.532;2022-09-20T00:29:56;9.20;99.90
19732;DHT22;10017;54.350;18.532;2022-09-20T00:32:29;9.20;99.90
19732;DHT22;10017;54.350;18.532;2022-09-20T00:35:01;9.10;99.90
19732;DHT22;10017;54.350;18.532;2022-09-20T00:37:42;9.10;99.90
19732;DHT22;10017;54.350;18.532;2022-09-20T00:40:15;9.10;99.90
19732;DHT22;10017;54.350;18.532;2022-09-20T00:42:48;9.00;99.90
19732;DHT22;10017;54.350;18.532;2022-09-20T00:45:26;9.00;99.90
19732;DHT22;10017;54.350;18.532;2022-09-20T00:48:00;9.00;99.90
19732;DHT22;10017;54.350;18.532;2022-09-20T00:50:39;8.90;99.90
19732;DHT22;10017;54.350;18.532;2022-09-20T00:55:45;8.90;99.90
19732;DHT22;10017;54.350;18.532;2022-09-20T00:58:18;8.80;99.90
19732;DHT22;10017;54.350;18.532;2022-09-20T01:00:50;8.80;99.90
19732;DHT22;10017;54.350;18.532;2022-09-20T01:03:24;8.70;99.90
19732;DHT22;10017;54.350;18.532;2022-09-20T01:05:58;8.70;99.90
19732;DHT22;10017;54.350;18.532;2022-09-20T01:08:30;8.70;99.90
19732;DHT22;10017;54.350;18.532;2022-09-20T01:11:02;8.70;99.90
19732;DHT22;10017;54.350;18.532;2022-09-20T01:13:36;8.60;99.90
19732;DHT22;10017;54.350;18.532;2022-09-20T01:16:10;8.60;99.90
19732;DHT22;10017;54.350;18.532;2022-09-20T01:18:43;8.60;99.90
19732;DHT22;10017;54.350;18.532;2022-09-20T01:21:15;8.60;99.90
19732;DHT22;10017;54.350;18.532;2022-09-20T01:26:24;8.50;99.90
19732;DHT22;10017;54.350;18.532;2022-09-20T01:29:04;8.50;99.90
19732;DHT22;10017;54.350;18.532;2022-09-20T01:31:43;8.40;99.90
19732;DHT22;10017;54.350;18.532;2022-09-20T01:34:27;8.40;99.90
19732;DHT22;10017;54.350;18.532;2022-09-20T01:42:36;8.30;99.90
19732;DHT22;10017;54.350;18.532;2022-09-20T02:06:37;8.20;99.90
19732;DHT22;10017;54.350;18.532;2022-09-20T02:23:10;8.30;99.90
19732;DHT22;10017;54.350;18.532;2022-09-20T02:39:15;8.30;99.90
19732;DHT22;10017;54.350;18.532;2022-09-20T02:41:52;8.40;99.90
19732;DHT22;10017;54.350;18.532;2022-09-20T02:49:42;8.30;99.90
19732;DHT22;10017;54.350;18.532;2022-09-20T02:52:32;8.30;99.90
19732;DHT22;10017;54.350;18.532;2022-09-20T03:00:52;8.20;99.90
19732;DHT22;10017;54.350;18.532;2022-09-20T03:06:17;8.20;99.90
19732;DHT22;10017;54.350;18.532;2022-09-20T03:11:42;8.10;99.90
19732;DHT22;10017;54.350;18.532;2022-09-20T03:14:25;8.10;99.90
19732;DHT22;10017;54.350;18.532;2022-09-20T03:20:10;8.10;99.90
19732;DHT22;10017;54.350;18.532;2022-09-20T03:22:53;8.10;99.90
19732;DHT22;10017;54.350;18.532;2022-09-20T03:28:28;8.00;99.90
19732;DHT22;10017;54.350;18.532;2022-09-20T03:36:38;7.90;99.90
19732;DHT22;10017;54.350;18.532;2022-09-20T03:55:42;7.90;99.90
19732;DHT22;10017;54.350;18.532;2022-09-20T03:58:27;7.80;99.90
19732;DHT22;10017;54.350;18.532;2022-09-20T04:01:07;7.80;99.90
19732;DHT22;10017;54.350;18.532;2022-09-20T04:12:01;7.60;99.90
19732;DHT22;10017;54.350;18.532;2022-09-20T04:14:42;7.60;99.90
19732;DHT22;10017;54.350;18.532;2022-09-20T04:22:39;7.60;99.90
19732;DHT22;10017;54.350;18.532;2022-09-20T04:25:18;7.50;99.90
19732;DHT22;10017;54.350;18.532;2022-09-20T04:27:54;7.50;99.90
19732;DHT22;10017;54.350;18.532;2022-09-20T04:30:30;7.50;99.90
19732;DHT22;10017;54.350;18.532;2022-09-20T04:33:06;7.50;99.90
19732;DHT22;10017;54.350;18.532;2022-09-20T04:35:44;7.50;99.90
19732;DHT22;10017;54.350;18.532;2022-09-20T04:38:39;7.50;99.90
19732;DHT22;10017;54.350;18.532;2022-09-20T04:46:39;7.50;99.90
19732;DHT22;10017;54.350;18.532;2022-09-20T04:59:59;7.70;99.90
19732;DHT22;10017;54.350;18.532;2022-09-20T05:05:28;7.80;99.90
19732;DHT22;10017;54.350;18.532;2022-09-20T05:19:15;8.20;99.90
19732;DHT22;10017;54.350;18.532;2022-09-20T05:32:43;8.50;99.90
19732;DHT22;10017;54.350;18.532;2022-09-20T05:40:38;8.90;99.90
19732;DHT22;10017;54.350;18.532;2022-09-20T05:43:26;9.00;99.90
19732;DHT22;10017;54.350;18.532;2022-09-20T05:48:53;9.30;99.90
19732;DHT22;10017;54.350;18.532;2022-09-20T06:05:11;10.50;99.90
19732;DHT22;10017;54.350;18.532;2022-09-20T06:10:37;10.60;99.90
19732;DHT22;10017;54.350;18.532;2022-09-20T06:13:18;10.60;99.90
19732;DHT22;10017;54.350;18.532;2022-09-20T06:18:39;10.70;99.90
19732;DHT22;10017;54.350;18.532;2022-09-20T06:23:54;10.80;99.90
19732;DHT22;10017;54.350;18.532;2022-09-20T06:26:32;10.90;99.90
19732;DHT22;10017;54.350;18.532;2022-09-20T06:29:06;11.10;99.90
19732;DHT22;10017;54.350;18.532;2022-09-20T06:31:41;11.30;99.90
19732;DHT22;10017;54.350;18.532;2022-09-20T06:34:13;11.40;99.90
19732;DHT22;10017;54.350;18.532;2022-09-20T06:36:47;11.60;99.90
19732;DHT22;10017;54.350;18.532;2022-09-20T06:40:02;11.70;99.90
19732;DHT22;10017;54.350;18.532;2022-09-20T06:42:54;11.80;99.90
19732;DHT22;10017;54.350;18.532;2022-09-20T06:45:27;11.80;99.90
19732;DHT22;10017;54.350;18.532;2022-09-20T06:47:59;11.70;99.90
19732;DHT22;10017;54.350;18.532;2022-09-20T06:50:32;11.70;99.90
19732;DHT22;10017;54.350;18.532;2022-09-20T06:53:07;11.60;99.90
19732;DHT22;10017;54.350;18.532;2022-09-20T06:55:40;11.50;99.90
19732;DHT22;10017;54.350;18.532;2022-09-20T06:58:13;11.90;99.90
19732;DHT22;10017;54.350;18.532;2022-09-20T07:00:45;13.20;99.90
19732;DHT22;10017;54.350;18.532;2022-09-20T07:03:19;14.80;99.90
19732;DHT22;10017;54.350;18.532;2022-09-20T07:05:51;16.50;99.90
19732;DHT22;10017;54.350;18.532;2022-09-20T07:08:23;18.10;15.30
19732;DHT22;10017;54.350;18.532;2022-09-20T07:10:55;19.40;1.00
19732;DHT22;10017;54.350;18.532;2022-09-20T07:13:26;20.20;1.00
19732;DHT22;10017;54.350;18.532;2022-09-20T07:15:59;20.90;1.00
19732;DHT22;10017;54.350;18.532;2022-09-20T07:18:32;21.30;1.00
19732;DHT22;10017;54.350;18.532;2022-09-20T07:21:04;21.30;1.00
19732;DHT22;10017;54.350;18.532;2022-09-20T07:23:36;20.80;1.00
19732;DHT22;10017;54.350;18.532;2022-09-20T07:26:19;19.90;1.00
19732;DHT22;10017;54.350;18.532;2022-09-20T07:28:51;18.70;1.00
19732;DHT22;10017;54.350;18.532;2022-09-20T07:31:23;17.10;1.00
19732;DHT22;10017;54.350;18.532;2022-09-20T07:33:58;16.20;33.40
19732;DHT22;10017;54.350;18.532;2022-09-20T07:36:30;15.60;76.50
19732;DHT22;10017;54.350;18.532;2022-09-20T07:39:01;15.40;86.90
19732;DHT22;10017;54.350;18.532;2022-09-20T07:41:33;15.20;93.40
19732;DHT22;10017;54.350;18.532;2022-09-20T07:44:07;15.10;99.90
19732;DHT22;10017;54.350;18.532;2022-09-20T07:46:56;15.10;99.90
19732;DHT22;10017;54.350;18.532;2022-09-20T07:49:28;15.20;99.90
19732;DHT22;10017;54.350;18.532;2022-09-20T07:52:00;15.10;99.90
19732;DHT22;10017;54.350;18.532;2022-09-20T07:54:32;15.10;99.90
19732;DHT22;10017;54.350;18.532;2022-09-20T07:57:04;15.00;99.90
19732;DHT22;10017;54.350;18.532;2022-09-20T07:59:36;14.80;99.90
19732;DHT22;10017;54.350;18.532;2022-09-20T08:02:11;14.90;99.90
19732;DHT22;10017;54.350;18.532;2022-09-20T08:04:44;15.00;99.90
19732;DHT22;10017;54.350;18.532;2022-09-20T08:07:16;14.90;99.90
19732;DHT22;10017;54.350;18.532;2022-09-20T08:09:50;15.00;99.90
19732;DHT22;10017;54.350;18.532;2022-09-20T08:12:22;15.00;96.90
19732;DHT22;10017;54.350;18.532;2022-09-20T08:15:16;14.60;99.90
19732;DHT22;10017;54.350;18.532;2022-09-20T08:17:48;14.70;99.90
19732;DHT22;10017;54.350;18.532;2022-09-20T08:20:20;14.60;99.90
19732;DHT22;10017;54.350;18.532;2022-09-20T08:22:56;14.40;99.90
19732;DHT22;10017;54.350;18.532;2022-09-20T08:25:48;14.30;99.90
19732;DHT22;10017;54.350;18.532;2022-09-20T08:28:22;14.30;99.90
19732;DHT22;10017;54.350;18.532;2022-09-20T08:31:01;14.50;99.90
19732;DHT22;10017;54.350;18.532;2022-09-20T08:33:33;14.90;99.90
19732;DHT22;10017;54.350;18.532;2022-09-20T08:36:07;15.10;75.30
19732;DHT22;10017;54.350;18.532;2022-09-20T08:38:41;15.10;52.90
19732;DHT22;10017;54.350;18.532;2022-09-20T08:41:33;14.90;60.90
19732;DHT22;10017;54.350;18.532;2022-09-20T08:46:46;14.60;92.30
19732;DHT22;10017;54.350;18.532;2022-09-20T08:49:25;14.70;75.00
19732;DHT22;10017;54.350;18.532;2022-09-20T08:51:58;14.60;43.30
19732;DHT22;10017;54.350;18.532;2022-09-20T08:54:31;14.70;78.90
19732;DHT22;10017;54.350;18.532;2022-09-20T08:57:11;14.90;86.20
19732;DHT22;10017;54.350;18.532;2022-09-20T08:59:45;15.00;21.10
19732;DHT22;10017;54.350;18.532;2022-09-20T09:02:18;15.10;9.20
19732;DHT22;10017;54.350;18.532;2022-09-20T09:04:50;15.20;1.00
19732;DHT22;10017;54.350;18.532;2022-09-20T09:07:24;15.10;1.00
19732;DHT22;10017;54.350;18.532;2022-09-20T09:09:59;15.10;5.00
19732;DHT22;10017;54.350;18.532;2022-09-20T09:12:33;15.20;6.00
19732;DHT22;10017;54.350;18.532;2022-09-20T09:15:50;15.00;8.60
19732;DHT22;10017;54.350;18.532;2022-09-20T09:18:01;14.80;36.20
19732;DHT22;10017;54.350;18.532;2022-09-20T09:20:39;14.90;34.40
19732;DHT22;10017;54.350;18.532;2022-09-20T09:23:30;15.10;66.50
19732;DHT22;10017;54.350;18.532;2022-09-20T09:26:18;15.40;22.50
19732;DHT22;10017;54.350;18.532;2022-09-20T09:31:42;14.70;9.50
19732;DHT22;10017;54.350;18.532;2022-09-20T09:34:29;14.50;57.70
19732;DHT22;10017;54.350;18.532;2022-09-20T09:37:01;14.50;31.90
19732;DHT22;10017;54.350;18.532;2022-09-20T09:39:33;14.60;18.00
19732;DHT22;10017;54.350;18.532;2022-09-20T09:42:19;14.80;15.50
19732;DHT22;10017;54.350;18.532;2022-09-20T09:44:51;15.10;1.00
19732;DHT22;10017;54.350;18.532;2022-09-20T09:47:26;15.30;1.00
19732;DHT22;10017;54.350;18.532;2022-09-20T09:49:58;15.40;1.00
19732;DHT22;10017;54.350;18.532;2022-09-20T09:52:36;15.60;1.00
19732;DHT22;10017;54.350;18.532;2022-09-20T09:55:08;15.80;1.00
19732;DHT22;10017;54.350;18.532;2022-09-20T10:00:24;14.80;1.00
19732;DHT22;10017;54.350;18.532;2022-09-20T10:05:55;13.30;99.90
19732;DHT22;10017;54.350;18.532;2022-09-20T10:08:41;13.00;99.90
19732;DHT22;10017;54.350;18.532;2022-09-20T10:16:41;12.90;99.90
19732;DHT22;10017;54.350;18.532;2022-09-20T10:22:25;12.90;99.90
19732;DHT22;10017;54.350;18.532;2022-09-20T10:28:06;13.10;99.90
19732;DHT22;10017;54.350;18.532;2022-09-20T10:57:24;14.00;99.90
19732;DHT22;10017;54.350;18.532;2022-09-20T11:08:37;14.10;99.90
19732;DHT22;10017;54.350;18.532;2022-09-20T11:11:12;14.40;99.90
19732;DHT22;10017;54.350;18.532;2022-09-20T11:13:50;14.50;99.90
19732;DHT22;10017;54.350;18.532;2022-09-20T11:19:02;14.90;99.90
19732;DHT22;10017;54.350;18.532;2022-09-20T11:21:54;15.20;99.90
19732;DHT22;10017;54.350;18.532;2022-09-20T11:24:45;15.30;99.90
19732;DHT22;10017;54.350;18.532;2022-09-20T11:27:23;15.50;42.40
19732;DHT22;10017;54.350;18.532;2022-09-20T11:30:01;15.40;24.40
19732;DHT22;10017;54.350;18.532;2022-09-20T11:32:34;15.40;38.20
19732;DHT22;10017;54.350;18.532;2022-09-20T11:37:44;15.40;4.90
19732;DHT22;10017;54.350;18.532;2022-09-20T11:40:33;15.60;12.80
19732;DHT22;10017;54.350;18.532;2022-09-20T11:43:10;15.80;37.00
19732;DHT22;10017;54.350;18.532;2022-09-20T11:45:48;16.00;50.10
19732;DHT22;10017;54.350;18.532;2022-09-20T11:48:21;16.00;72.30
19732;DHT22;10017;54.350;18.532;2022-09-20T11:53:40;15.70;5.50
19732;DHT22;10017;54.350;18.532;2022-09-20T11:56:16;15.40;1.00
19732;DHT22;10017;54.350;18.532;2022-09-20T11:58:49;15.00;16.40
19732;DHT22;10017;54.350;18.532;2022-09-20T12:01:28;14.80;51.10
19732;DHT22;10017;54.350;18.532;2022-09-20T12:07:04;14.60;99.90
19732;DHT22;10017;54.350;18.532;2022-09-20T12:09:50;14.40;99.90
19732;DHT22;10017;54.350;18.532;2022-09-20T12:15:26;14.20;99.90
19732;DHT22;10017;54.350;18.532;2022-09-20T12:26:51;13.10;99.90
19732;DHT22;10017;54.350;18.532;2022-09-20T12:28:58;12.90;99.90
19732;DHT22;10017;54.350;18.532;2022-09-20T12:36:35;12.70;99.90
19732;DHT22;10017;54.350;18.532;2022-09-20T12:41:57;12.80;99.90
19732;DHT22;10017;54.350;18.532;2022-09-20T12:44:37;12.80;99.90
19732;DHT22;10017;54.350;18.532;2022-09-20T12:52:37;13.20;99.90
19732;DHT22;10017;54.350;18.532;2022-09-20T12:55:26;13.20;99.90
19732;DHT22;10017;54.350;18.532;2022-09-20T12:58:00;13.00;99.90
19732;DHT22;10017;54.350;18.532;2022-09-20T13:05:46;13.20;99.90
19732;DHT22;10017;54.350;18.532;2022-09-20T13:08:22;13.30;99.90
19732;DHT22;10017;54.350;18.532;2022-09-20T13:10:59;13.30;99.90
19732;DHT22;10017;54.350;18.532;2022-09-20T13:13:34;13.30;99.90
19732;DHT22;10017;54.350;18.532;2022-09-20T13:16:11;13.40;99.90
19732;DHT22;10017;54.350;18.532;2022-09-20T13:18:54;13.60;99.90
19732;DHT22;10017;54.350;18.532;2022-09-20T13:21:28;14.00;99.90
19732;DHT22;10017;54.350;18.532;2022-09-20T13:24:01;14.40;99.90
19732;DHT22;10017;54.350;18.532;2022-09-20T13:26:40;14.80;99.90
19732;DHT22;10017;54.350;18.532;2022-09-20T13:29:21;15.30;99.90
19732;DHT22;10017;54.350;18.532;2022-09-20T13:31:53;15.60;99.90
19732;DHT22;10017;54.350;18.532;2022-09-20T13:34:27;15.70;99.90
19732;DHT22;10017;54.350;18.532;2022-09-20T13:36:59;15.80;99.90
19732;DHT22;10017;54.350;18.532;2022-09-20T13:39:32;15.30;99.90
19732;DHT22;10017;54.350;18.532;2022-09-20T13:42:10;15.00;99.90
19732;DHT22;10017;54.350;18.532;2022-09-20T13:44:49;14.70;99.90
19732;DHT22;10017;54.350;18.532;2022-09-20T13:50:38;14.60;99.90
19732;DHT22;10017;54.350;18.532;2022-09-20T13:52:46;14.70;99.90
19732;DHT22;10017;54.350;18.532;2022-09-20T13:55:25;14.80;99.90
19732;DHT22;10017;54.350;18.532;2022-09-20T13:57:59;15.10;99.90
19732;DHT22;10017;54.350;18.532;2022-09-20T14:00:34;15.20;99.90
19732;DHT22;10017;54.350;18.532;2022-09-20T14:03:11;15.30;96.40
19732;DHT22;10017;54.350;18.532;2022-09-20T14:05:46;15.20;84.40
19732;DHT22;10017;54.350;18.532;2022-09-20T14:08:22;15.10;50.50
19732;DHT22;10017;54.350;18.532;2022-09-20T14:11:02;15.20;88.50
19732;DHT22;10017;54.350;18.532;2022-09-20T14:13:37;15.30;91.80
19732;DHT22;10017;54.350;18.532;2022-09-20T14:16:12;15.40;91.90
19732;DHT22;10017;54.350;18.532;2022-09-20T14:18:46;15.60;53.70
19732;DHT22;10017;54.350;18.532;2022-09-20T14:21:28;15.80;50.60
19732;DHT22;10017;54.350;18.532;2022-09-20T14:24:06;16.00;36.40
19732;DHT22;10017;54.350;18.532;2022-09-20T14:26:38;16.20;32.90
19732;DHT22;10017;54.350;18.532;2022-09-20T14:34:37;16.60;16.30
19732;DHT22;10017;54.350;18.532;2022-09-20T14:37:12;16.60;13.00
19732;DHT22;10017;54.350;18.532;2022-09-20T14:39:47;15.70;1.00
19732;DHT22;10017;54.350;18.532;2022-09-20T14:42:30;14.90;32.60
19732;DHT22;10017;54.350;18.532;2022-09-20T14:45:04;14.20;99.90
19732;DHT22;10017;54.350;18.532;2022-09-20T14:47:37;13.60;99.90
19732;DHT22;10017;54.350;18.532;2022-09-20T14:56:50;12.40;99.90
19732;DHT22;10017;54.350;18.532;2022-09-20T14:59:00;12.30;99.90
19732;DHT22;10017;54.350;18.532;2022-09-20T15:01:32;12.10;99.90
19732;DHT22;10017;54.350;18.532;2022-09-20T15:04:08;12.00;99.90
19732;DHT22;10017;54.350;18.532;2022-09-20T15:06:42;12.00;99.90
19732;DHT22;10017;54.350;18.532;2022-09-20T15:09:14;11.90;99.90
19732;DHT22;10017;54.350;18.532;2022-09-20T15:12:04;11.80;99.90
19732;DHT22;10017;54.350;18.532;2022-09-20T15:14:36;11.80;99.90
19732;DHT22;10017;54.350;18.532;2022-09-20T15:17:14;11.70;99.90
19732;DHT22;10017;54.350;18.532;2022-09-20T15:19:47;11.70;99.90
19732;DHT22;10017;54.350;18.532;2022-09-20T15:22:19;11.60;99.90
19732;DHT22;10017;54.350;18.532;2022-09-20T15:24:54;11.60;99.90
19732;DHT22;10017;54.350;18.532;2022-09-20T15:27:25;11.60;99.90
19732;DHT22;10017;54.350;18.532;2022-09-20T15:29:59;11.50;99.90
19732;DHT22;10017;54.350;18.532;2022-09-20T15:32:30;11.50;99.90
19732;DHT22;10017;54.350;18.532;2022-09-20T15:35:05;11.50;99.90
19732;DHT22;10017;54.350;18.532;2022-09-20T15:37:37;11.40;99.90
19732;DHT22;10017;54.350;18.532;2022-09-20T15:40:09;11.30;99.90
19732;DHT22;10017;54.350;18.532;2022-09-20T15:42:41;11.30;99.90
19732;DHT22;10017;54.350;18.532;2022-09-20T15:45:16;11.30;99.90
19732;DHT22;10017;54.350;18.532;2022-09-20T15:47:48;11.30;99.90
19732;DHT22;10017;54.350;18.532;2022-09-20T15:50:20;11.30;99.90
19732;DHT22;10017;54.350;18.532;2022-09-20T15:53:01;11.30;99.90
19732;DHT22;10017;54.350;18.532;2022-09-20T15:55:35;11.30;99.90
19732;DHT22;10017;54.350;18.532;2022-09-20T15:58:07;11.30;99.90
19732;DHT22;10017;54.350;18.532;2022-09-20T16:00:39;11.30;99.90
19732;DHT22;10017;54.350;18.532;2022-09-20T16:03:11;11.30;99.90
19732;DHT22;10017;54.350;18.532;2022-09-20T16:05:43;11.30;99.90
19732;DHT22;10017;54.350;18.532;2022-09-20T16:08:15;11.30;99.90
19732;DHT22;10017;54.350;18.532;2022-09-20T16:10:54;11.20;99.90
19732;DHT22;10017;54.350;18.532;2022-09-20T16:13:26;11.20;99.90
19732;DHT22;10017;54.350;18.532;2022-09-20T16:16:00;11.30;99.90
19732;DHT22;10017;54.350;18.532;2022-09-20T16:18:34;11.20;99.90
19732;DHT22;10017;54.350;18.532;2022-09-20T16:21:24;11.20;99.90
19732;DHT22;10017;54.350;18.532;2022-09-20T16:23:57;11.20;99.90
19732;DHT22;10017;54.350;18.532;2022-09-20T16:26:29;11.20;99.90
19732;DHT22;10017;54.350;18.532;2022-09-20T16:29:01;11.20;99.90
19732;DHT22;10017;54.350;18.532;2022-09-20T16:31:37;11.20;99.90
19732;DHT22;10017;54.350;18.532;2022-09-20T16:36:48;11.20;99.90
19732;DHT22;10017;54.350;18.532;2022-09-20T16:39:26;11.20;99.90
19732;DHT22;10017;54.350;18.532;2022-09-20T16:42:02;11.20;99.90
19732;DHT22;10017;54.350;18.532;2022-09-20T16:44:36;11.10;99.90
19732;DHT22;10017;54.350;18.532;2022-09-20T16:47:10;11.10;99.90
19732;DHT22;10017;54.350;18.532;2022-09-20T16:49:42;11.00;99.90
19732;DHT22;10017;54.350;18.532;2022-09-20T16:52:15;11.00;99.90
19732;DHT22;10017;54.350;18.532;2022-09-20T16:54:46;11.00;99.90
19732;DHT22;10017;54.350;18.532;2022-09-20T16:57:18;10.90;99.90
19732;DHT22;10017;54.350;18.532;2022-09-20T16:59:51;10.90;99.90
19732;DHT22;10017;54.350;18.532;2022-09-20T17:02:26;10.80;99.90
19732;DHT22;10017;54.350;18.532;2022-09-20T17:04:58;10.80;99.90
19732;DHT22;10017;54.350;18.532;2022-09-20T17:07:31;10.80;99.90
19732;DHT22;10017;54.350;18.532;2022-09-20T17:10:07;10.70;99.90
19732;DHT22;10017;54.350;18.532;2022-09-20T17:12:42;10.70;99.90
19732;DHT22;10017;54.350;18.532;2022-09-20T17:15:17;10.70;99.90
19732;DHT22;10017;54.350;18.532;2022-09-20T17:17:49;10.70;99.90
19732;DHT22;10017;54.350;18.532;2022-09-20T17:20:21;10.70;99.90
19732;DHT22;10017;54.350;18.532;2022-09-20T17:22:58;10.80;99.90
19732;DHT22;10017;54.350;18.532;2022-09-20T17:25:30;10.80;99.90
19732;DHT22;10017;54.350;18.532;2022-09-20T17:28:02;10.80;99.90
19732;DHT22;10017;54.350;18.532;2022-09-20T17:30:34;10.70;99.90
19732;DHT22;10017;54.350;18.532;2022-09-20T17:33:06;10.70;99.90
19732;DHT22;10017;54.350;18.532;2022-09-20T17:35:38;10.70;99.90
19732;DHT22;10017;54.350;18.532;2022-09-20T17:38:09;10.60;99.90
19732;DHT22;10017;54.350;18.532;2022-09-20T17:40:42;10.60;99.90
19732;DHT22;10017;54.350;18.532;2022-09-20T17:43:14;10.50;99.90
19732;DHT22;10017;54.350;18.532;2022-09-20T17:45:46;10.50;99.90
19732;DHT22;10017;54.350;18.532;2022-09-20T17:48:20;10.50;99.90
19732;DHT22;10017;54.350;18.532;2022-09-20T17:50:54;10.40;99.90
19732;DHT22;10017;54.350;18.532;2022-09-20T17:53:26;10.40;99.90
19732;DHT22;10017;54.350;18.532;2022-09-20T17:56:01;10.30;99.90
19732;DHT22;10017;54.350;18.532;2022-09-20T17:58:33;10.30;99.90
19732;DHT22;10017;54.350;18.532;2022-09-20T18:01:07;10.20;99.90
19732;DHT22;10017;54.350;18.532;2022-09-20T18:03:44;10.20;99.90
19732;DHT22;10017;54.350;18.532;2022-09-20T18:08:53;10.20;99.90
19732;DHT22;10017;54.350;18.532;2022-09-20T18:11:41;10.20;99.90
19732;DHT22;10017;54.350;18.532;2022-09-20T18:14:16;10.20;99.90
19732;DHT22;10017;54.350;18.532;2022-09-20T18:16:51;10.30;99.90
19732;DHT22;10017;54.350;18.532;2022-09-20T18:19:23;10.30;99.90
19732;DHT22;10017;54.350;18.532;2022-09-20T18:21:55;10.40;99.90
19732;DHT22;10017;54.350;18.532;2022-09-20T18:24:27;10.40;99.90
19732;DHT22;10017;54.350;18.532;2022-09-20T18:27:00;10.50;99.90
19732;DHT22;10017;54.350;18.532;2022-09-20T18:29:31;10.50;99.90
19732;DHT22;10017;54.350;18.532;2022-09-20T18:32:07;10.50;99.90
19732;DHT22;10017;54.350;18.532;2022-09-20T18:34:39;10.60;99.90
19732;DHT22;10017;54.350;18.532;2022-09-20T18:37:11;10.60;99.90
19732;DHT22;10017;54.350;18.532;2022-09-20T18:39:45;10.60;99.90
19732;DHT22;10017;54.350;18.532;2022-09-20T18:42:20;10.60;99.90
19732;DHT22;10017;54.350;18.532;2022-09-20T18:44:52;10.70;99.90
19732;DHT22;10017;54.350;18.532;2022-09-20T18:47:24;10.70;99.90
19732;DHT22;10017;54.350;18.532;2022-09-20T18:49:58;10.60;99.90
19732;DHT22;10017;54.350;18.532;2022-09-20T18:52:30;10.60;99.90
19732;DHT22;10017;54.350;18.532;2022-09-20T18:55:05;10.70;99.90
19732;DHT22;10017;54.350;18.532;2022-09-20T18:57:38;10.70;99.90
19732;DHT22;10017;54.350;18.532;2022-09-20T19:00:10;10.70;99.90
19732;DHT22;10017;54.350;18.532;2022-09-20T19:05:34;10.70;99.90
19732;DHT22;10017;54.350;18.532;2022-09-20T19:08:20;10.70;99.90
19732;DHT22;10017;54.350;18.532;2022-09-20T19:10:59;10.70;99.90
19732;DHT22;10017;54.350;18.532;2022-09-20T19:13:50;10.60;99.90
19732;DHT22;10017;54.350;18.532;2022-09-20T19:16:43;10.70;99.90
19732;DHT22;10017;54.350;18.532;2022-09-20T19:19:43;10.70;99.90
19732;DHT22;10017;54.350;18.532;2022-09-20T19:25:25;10.60;99.90
19732;DHT22;10017;54.350;18.532;2022-09-20T19:27:59;10.60;99.90
19732;DHT22;10017;54.350;18.532;2022-09-20T19:30:31;10.60;99.90
19732;DHT22;10017;54.350;18.532;2022-09-20T19:33:07;10.70;99.90
19732;DHT22;10017;54.350;18.532;2022-09-20T19:35:45;10.60;99.90
19732;DHT22;10017;54.350;18.532;2022-09-20T19:38:38;10.60;99.90
19732;DHT22;10017;54.350;18.532;2022-09-20T19:49:51;10.50;99.90
19732;DHT22;10017;54.350;18.532;2022-09-20T19:52:24;10.50;99.90
19732;DHT22;10017;54.350;18.532;2022-09-20T19:54:56;10.50;99.90
19732;DHT22;10017;54.350;18.532;2022-09-20T19:57:31;10.50;99.90
19732;DHT22;10017;54.350;18.532;2022-09-20T20:00:09;10.50;99.90
19732;DHT22;10017;54.350;18.532;2022-09-20T20:02:43;10.50;99.90
19732;DHT22;10017;54.350;18.532;2022-09-20T20:05:17;10.40;99.90
19732;DHT22;10017;54.350;18.532;2022-09-20T20:08:10;10.40;99.90
19732;DHT22;10017;54.350;18.532;2022-09-20T20:16:13;10.40;99.90
19732;DHT22;10017;54.350;18.532;2022-09-20T20:21:41;10.40;99.90
19732;DHT22;10017;54.350;18.532;2022-09-20T20:24:29;10.40;99.90
19732;DHT22;10017;54.350;18.532;2022-09-20T20:27:04;10.40;99.90
19732;DHT22;10017;54.350;18.532;2022-09-20T20:29:35;10.50;99.90
19732;DHT22;10017;54.350;18.532;2022-09-20T20:32:07;10.40;99.90
19732;DHT22;10017;54.350;18.532;2022-09-20T20:34:39;10.40;99.90
19732;DHT22;10017;54.350;18.532;2022-09-20T20:37:11;10.40;99.90
19732;DHT22;10017;54.350;18.532;2022-09-20T20:39:43;10.40;99.90
19732;DHT22;10017;54.350;18.532;2022-09-20T20:42:15;10.40;99.90
19732;DHT22;10017;54.350;18.532;2022-09-20T20:44:47;10.40;99.90
19732;DHT22;10017;54.350;18.532;2022-09-20T20:47:19;10.50;99.90
19732;DHT22;10017;54.350;18.532;2022-09-20T20:49:51;10.40;99.90
19732;DHT22;10017;54.350;18.532;2022-09-20T20:52:23;10.40;99.90
19732;DHT22;10017;54.350;18.532;2022-09-20T20:54:55;10.40;99.90
19732;DHT22;10017;54.350;18.532;2022-09-20T20:57:30;10.40;99.90
19732;DHT22;10017;54.350;18.532;2022-09-20T21:00:02;10.40;99.90
19732;DHT22;10017;54.350;18.532;2022-09-20T21:02:34;10.40;99.90
19732;DHT22;10017;54.350;18.532;2022-09-20T21:05:06;10.40;99.90
19732;DHT22;10017;54.350;18.532;2022-09-20T21:07:38;10.50;99.90
19732;DHT22;10017;54.350;18.532;2022-09-20T21:10:10;10.50;99.90
19732;DHT22;10017;54.350;18.532;2022-09-20T21:12:41;10.60;99.90
19732;DHT22;10017;54.350;18.532;2022-09-20T21:15:13;10.60;99.90
19732;DHT22;10017;54.350;18.532;2022-09-20T21:17:49;10.60;99.90
19732;DHT22;10017;54.350;18.532;2022-09-20T21:20:21;10.60;99.90
19732;DHT22;10017;54.350;18.532;2022-09-20T21:22:54;10.60;99.90
19732;DHT22;10017;54.350;18.532;2022-09-20T21:25:26;10.60;99.90
19732;DHT22;10017;54.350;18.532;2022-09-20T21:27:58;10.50;99.90
19732;DHT22;10017;54.350;18.532;2022-09-20T21:30:32;10.50;99.90
19732;DHT22;10017;54.350;18.532;2022-09-20T21:33:04;10.40;99.90
19732;DHT22;10017;54.350;18.532;2022-09-20T21:35:36;10.40;99.90
19732;DHT22;10017;54.350;18.532;2022-09-20T21:38:08;10.40;99.90
19732;DHT22;10017;54.350;18.532;2022-09-20T21:40:39;10.50;99.90
19732;DHT22;10017;54.350;18.532;2022-09-20T21:43:12;10.40;99.90